sensor_id;sensor_type;location;lat;lon;timestamp;pressure;altitude;pressure_sealevel;temperature;humidity
28310;BME280;15571;50.974;13.936;2024-01-25T00:01:01;100465.72;;;10.55;100.00
28310;BME280;15571;50.974;13.936;2024-01-25T00:04:05;100464.00;;;10.47;100.00
28310;BME280;15571;50.974;13.936;2024-01-25T00:07:07;100466.59;;;10.53;100.00
28310;BME280;15571;50.974;13.936;2024-01-25T00:10:09;100478.84;;;10.48;100.00
28310;BME280;15571;50.974;13.936;2024-01-25T00:13:11;100460.50;;;10.54;100.00
28310;BME280;15571;50.974;13.936;2024-01-25T00:16:13;100469.22;;;10.53;100.00
28310;BME280;15571;50.974;13.936;2024-01-25T00:19:16;100463.97;;;10.50;100.00
28310;BME280;15571;50.974;13.936;2024-01-25T00:22:18;100474.47;;;10.43;100.00
28310;BME280;15571;50.974;13.936;2024-01-25T00:25:20;100472.69;;;10.49;100.00
28310;BME280;15571;50.974;13.936;2024-01-25T00:28:22;100491.03;;;10.52;100.00
28310;BME280;15571;50.974;13.936;2024-01-25T00:31:24;100484.06;;;10.48;100.00
28310;BME280;15571;50.974;13.936;2024-01-25T00:34:32;100495.38;;;10.54;100.00
28310;BME280;15571;50.974;13.936;2024-01-25T00:37:37;100480.56;;;10.52;100.00
28310;BME280;15571;50.974;13.936;2024-01-25T00:40:39;100492.78;;;10.53;100.00
28310;BME280;15571;50.974;13.936;2024-01-25T00:43:41;100499.75;;;10.57;100.00
28310;BME280;15571;50.974;13.936;2024-01-25T00:46:44;100499.75;;;10.45;100.00
28310;BME280;15571;50.974;13.936;2024-01-25T00:49:52;100517.22;;;10.55;100.00
28310;BME280;15571;50.974;13.936;2024-01-25T00:52:57;100505.00;;;10.48;100.00
28310;BME280;15571;50.974;13.936;2024-01-25T00:55:59;100521.56;;;10.50;100.00
28310;BME280;15571;50.974;13.936;2024-01-25T00:59:01;100516.34;;;10.48;100.00
28310;BME280;15571;50.974;13.936;2024-01-25T01:02:03;100506.75;;;10.55;100.00
28310;BME280;15571;50.974;13.936;2024-01-25T01:05:08;100504.97;;;10.51;100.00
28310;BME280;15571;50.974;13.936;2024-01-25T01:08:11;100510.22;;;10.57;100.00
28310;BME280;15571;50.974;13.936;2024-01-25T01:11:13;100518.06;;;10.65;100.00
28310;BME280;15571;50.974;13.936;2024-01-25T01:14:17;100510.22;;;10.66;100.00
28310;BME280;15571;50.974;13.936;2024-01-25T01:17:19;100520.72;;;10.52;100.00
28310;BME280;15571;50.974;13.936;2024-01-25T01:20:23;100526.81;;;10.65;100.00
28310;BME280;15571;50.974;13.936;2024-01-25T01:23:25;100533.78;;;10.51;100.00
28310;BME280;15571;50.974;13.936;2024-01-25T01:26:27;100534.66;;;10.53;100.00
28310;BME280;15571;50.974;13.936;2024-01-25T01:29:29;100531.19;;;10.52;100.00
28310;BME280;15571;50.974;13.936;2024-01-25T01:32:31;100524.16;;;10.50;100.00
28310;BME280;15571;50.974;13.936;2024-01-25T01:35:34;100518.97;;;10.47;100.00
28310;BME280;15571;50.974;13.936;2024-01-25T01:38:36;100524.19;;;10.47;100.00
28310;BME280;15571;50.974;13.936;2024-01-25T01:41:38;100520.72;;;10.48;100.00
28310;BME280;15571;50.974;13.936;2024-01-25T01:44:40;100539.88;;;10.53;100.00
28310;BME280;15571;50.974;13.936;2024-01-25T01:47:42;100518.94;;;10.48;100.00
28310;BME280;15571;50.974;13.936;2024-01-25T01:50:49;100529.44;;;10.51;100.00
28310;BME280;15571;50.974;13.936;2024-01-25T01:53:51;100523.31;;;10.41;100.00
28310;BME280;15571;50.974;13.936;2024-01-25T01:56:53;100514.59;;;10.38;100.00
28310;BME280;15571;50.974;13.936;2024-01-25T01:59:56;100516.31;;;10.40;100.00
28310;BME280;15571;50.974;13.936;2024-01-25T02:02:58;100509.34;;;10.50;100.00
28310;BME280;15571;50.974;13.936;2024-01-25T02:06:02;100545.13;;;10.56;100.00
28310;BME280;15571;50.974;13.936;2024-01-25T02:09:05;100532.84;;;10.25;100.00
28310;BME280;15571;50.974;13.936;2024-01-25T02:12:07;100525.88;;;10.32;100.00
28310;BME280;15571;50.974;13.936;2024-01-25T02:15:09;100533.78;;;10.45;100.00
28310;BME280;15571;50.974;13.936;2024-01-25T02:18:11;100522.44;;;10.46;100.00
28310;BME280;15571;50.974;13.936;2024-01-25T02:21:15;100512.84;;;10.43;100.00
28310;BME280;15571;50.974;13.936;2024-01-25T02:24:18;100531.19;;;10.57;100.00
28310;BME280;15571;50.974;13.936;2024-01-25T02:27:23;100536.34;;;10.32;100.00
28310;BME280;15571;50.974;13.936;2024-01-25T02:30:25;100529.44;;;10.47;100.00
28310;BME280;15571;50.974;13.936;2024-01-25T02:33:30;100522.44;;;10.58;100.00
28310;BME280;15571;50.974;13.936;2024-01-25T02:36:32;100524.19;;;10.53;100.00
28310;BME280;15571;50.974;13.936;2024-01-25T02:39:35;100536.38;;;10.35;100.00
28310;BME280;15571;50.974;13.936;2024-01-25T02:42:37;100533.81;;;10.43;100.00
28310;BME280;15571;50.974;13.936;2024-01-25T02:45:39;100543.38;;;10.39;100.00
28310;BME280;15571;50.974;13.936;2024-01-25T02:48:42;100540.75;;;10.39;100.00
28310;BME280;15571;50.974;13.936;2024-01-25T02:51:45;100537.28;;;10.39;100.00
28310;BME280;15571;50.974;13.936;2024-01-25T02:54:49;100539.88;;;10.40;100.00
28310;BME280;15571;50.974;13.936;2024-01-25T02:57:51;100531.13;;;10.35;100.00
28310;BME280;15571;50.974;13.936;2024-01-25T03:00:52;100530.28;;;10.44;100.00
28310;BME280;15571;50.974;13.936;2024-01-25T03:03:54;100536.34;;;10.34;100.00
28310;BME280;15571;50.974;13.936;2024-01-25T03:06:57;100546.81;;;10.20;100.00
28310;BME280;15571;50.974;13.936;2024-01-25T03:10:00;100551.22;;;10.44;100.00
28310;BME280;15571;50.974;13.936;2024-01-25T03:13:02;100567.78;;;10.35;100.00
28310;BME280;15571;50.974;13.936;2024-01-25T03:16:04;100552.03;;;10.24;100.00
28310;BME280;15571;50.974;13.936;2024-01-25T03:19:07;100560.75;;;10.22;100.00
28310;BME280;15571;50.974;13.936;2024-01-25T03:22:09;100536.38;;;10.35;100.00
28310;BME280;15571;50.974;13.936;2024-01-25T03:25:12;100533.72;;;10.34;100.00
28310;BME280;15571;50.974;13.936;2024-01-25T03:28:15;100536.41;;;10.38;100.00
28310;BME280;15571;50.974;13.936;2024-01-25T03:31:20;100531.16;;;10.45;100.00
28310;BME280;15571;50.974;13.936;2024-01-25T03:34:22;100541.66;;;10.38;100.00
28310;BME280;15571;50.974;13.936;2024-01-25T03:37:27;100543.34;;;10.27;100.00
28310;BME280;15571;50.974;13.936;2024-01-25T03:40:30;100537.28;;;10.39;100.00
28310;BME280;15571;50.974;13.936;2024-01-25T03:43:32;100547.69;;;10.26;100.00
28310;BME280;15571;50.974;13.936;2024-01-25T03:46:34;100548.56;;;10.33;100.00
28310;BME280;15571;50.974;13.936;2024-01-25T03:49:36;100549.50;;;10.48;100.00
28310;BME280;15571;50.974;13.936;2024-01-25T03:52:39;100541.59;;;10.17;100.00
28310;BME280;15571;50.974;13.936;2024-01-25T03:55:42;100548.56;;;10.33;100.00
28310;BME280;15571;50.974;13.936;2024-01-25T03:58:44;100538.13;;;10.38;100.00
28310;BME280;15571;50.974;13.936;2024-01-25T04:01:46;100534.59;;;10.03;100.00
28310;BME280;15571;50.974;13.936;2024-01-25T04:04:48;100527.63;;;10.15;100.00
28310;BME280;15571;50.974;13.936;2024-01-25T04:07:50;100537.22;;;10.25;100.00
28310;BME280;15571;50.974;13.936;2024-01-25T04:10:54;100543.34;;;10.18;100.00
28310;BME280;15571;50.974;13.936;2024-01-25T04:13:57;100537.19;;;10.09;100.00
28310;BME280;15571;50.974;13.936;2024-01-25T04:16:59;100532.88;;;10.18;100.00
28310;BME280;15571;50.974;13.936;2024-01-25T04:20:00;100539.81;;;10.00;100.00
28310;BME280;15571;50.974;13.936;2024-01-25T04:23:03;100548.50;;;9.93;100.00
28310;BME280;15571;50.974;13.936;2024-01-25T04:26:07;100552.03;;;10.04;100.00
28310;BME280;15571;50.974;13.936;2024-01-25T04:29:09;100554.66;;;10.29;100.00
28310;BME280;15571;50.974;13.936;2024-01-25T04:32:12;100552.94;;;10.36;100.00
28310;BME280;15571;50.974;13.936;2024-01-25T04:35:19;100564.22;;;9.97;100.00
28310;BME280;15571;50.974;13.936;2024-01-25T04:38:22;100565.09;;;10.00;100.00
28310;BME280;15571;50.974;13.936;2024-01-25T04:41:25;100556.38;;;9.99;100.00
28310;BME280;15571;50.974;13.936;2024-01-25T04:44:27;100558.16;;;10.25;100.00
28310;BME280;15571;50.974;13.936;2024-01-25T04:47:29;100551.19;;;10.18;100.00
28310;BME280;15571;50.974;13.936;2024-01-25T04:50:32;100559.88;;;10.07;100.00
28310;BME280;15571;50.974;13.936;2024-01-25T04:53:35;100545.91;;;10.07;100.00
28310;BME280;15571;50.974;13.936;2024-01-25T04:56:38;100561.56;;;9.94;100.00
28310;BME280;15571;50.974;13.936;2024-01-25T04:59:46;100560.72;;;10.00;100.00
28310;BME280;15571;50.974;13.936;2024-01-25T05:02:54;100570.34;;;10.12;100.00
28310;BME280;15571;50.974;13.936;2024-01-25T05:05:55;100579.09;;;10.20;100.00
28310;BME280;15571;50.974;13.936;2024-01-25T05:08:57;100572.94;;;9.95;100.00
28310;BME280;15571;50.974;13.936;2024-01-25T05:12:01;100572.94;;;10.04;100.00
28310;BME280;15571;50.974;13.936;2024-01-25T05:15:03;100572.06;;;9.99;100.00
28310;BME280;15571;50.974;13.936;2024-01-25T05:18:05;100591.28;;;10.13;100.00
28310;BME280;15571;50.974;13.936;2024-01-25T05:21:08;100588.66;;;10.20;100.00
28310;BME280;15571;50.974;13.936;2024-01-25T05:24:10;100600.84;;;10.02;100.00
28310;BME280;15571;50.974;13.936;2024-01-25T05:27:13;100593.91;;;10.13;100.00
28310;BME280;15571;50.974;13.936;2024-01-25T05:30:15;100619.19;;;10.10;100.00
28310;BME280;15571;50.974;13.936;2024-01-25T05:33:18;100594.78;;;10.16;100.00
28310;BME280;15571;50.974;13.936;2024-01-25T05:36:20;100590.38;;;9.99;100.00
28310;BME280;15571;50.974;13.936;2024-01-25T05:39:24;100606.97;;;10.03;100.00
28310;BME280;15571;50.974;13.936;2024-01-25T05:42:27;100619.16;;;10.07;100.00
28310;BME280;15571;50.974;13.936;2024-01-25T05:45:29;100606.09;;;10.08;100.00
28310;BME280;15571;50.974;13.936;2024-01-25T05:48:31;100620.94;;;10.16;100.00
28310;BME280;15571;50.974;13.936;2024-01-25T05:51:33;100629.63;;;10.01;100.00
28310;BME280;15571;50.974;13.936;2024-01-25T05:54:36;100636.53;;;9.89;100.00
28310;BME280;15571;50.974;13.936;2024-01-25T05:57:41;100641.78;;;10.00;100.00
28310;BME280;15571;50.974;13.936;2024-01-25T06:00:44;100632.19;;;9.93;100.00
28310;BME280;15571;50.974;13.936;2024-01-25T06:03:46;100636.56;;;9.94;100.00
28310;BME280;15571;50.974;13.936;2024-01-25T06:06:48;100631.38;;;10.09;100.00
28310;BME280;15571;50.974;13.936;2024-01-25T06:09:50;100633.06;;;9.92;100.00
28310;BME280;15571;50.974;13.936;2024-01-25T06:12:53;100625.19;;;9.86;100.00
28310;BME280;15571;50.974;13.936;2024-01-25T06:15:55;100633.88;;;9.74;100.00
28310;BME280;15571;50.974;13.936;2024-01-25T06:18:57;100630.50;;;10.04;100.00
28310;BME280;15571;50.974;13.936;2024-01-25T06:22:02;100617.41;;;10.03;100.00
28310;BME280;15571;50.974;13.936;2024-01-25T06:25:05;100627.00;;;10.01;100.00
28310;BME280;15571;50.974;13.936;2024-01-25T06:28:10;100640.94;;;9.98;100.00
28310;BME280;15571;50.974;13.936;2024-01-25T06:31:12;100634.78;;;9.90;100.00
28310;BME280;15571;50.974;13.936;2024-01-25T06:34:17;100642.63;;;9.87;100.00
28310;BME280;15571;50.974;13.936;2024-01-25T06:37:19;100660.84;;;9.68;100.00
28310;BME280;15571;50.974;13.936;2024-01-25T06:40:21;100642.56;;;9.74;100.00
28310;BME280;15571;50.974;13.936;2024-01-25T06:43:25;100648.63;;;9.70;100.00
28310;BME280;15571;50.974;13.936;2024-01-25T06:46:27;100657.31;;;9.58;100.00
28310;BME280;15571;50.974;13.936;2024-01-25T06:49:31;100666.97;;;9.73;100.00
28310;BME280;15571;50.974;13.936;2024-01-25T06:52:33;100662.56;;;9.60;100.00
28310;BME280;15571;50.974;13.936;2024-01-25T06:55:35;100653.94;;;9.82;100.00
28310;BME280;15571;50.974;13.936;2024-01-25T06:58:39;100653.06;;;9.80;100.00
28310;BME280;15571;50.974;13.936;2024-01-25T07:01:40;100643.47;;;9.76;100.00
28310;BME280;15571;50.974;13.936;2024-01-25T07:04:42;100680.91;;;9.69;100.00
28310;BME280;15571;50.974;13.936;2024-01-25T07:07:44;100693.91;;;9.58;100.00
28310;BME280;15571;50.974;13.936;2024-01-25T07:10:46;100700.06;;;9.68;100.00
28310;BME280;15571;50.974;13.936;2024-01-25T07:13:50;100690.59;;;9.89;100.00
28310;BME280;15571;50.974;13.936;2024-01-25T07:16:52;100691.31;;;9.63;100.00
28310;BME280;15571;50.974;13.936;2024-01-25T07:19:54;100692.31;;;9.90;100.00
28310;BME280;15571;50.974;13.936;2024-01-25T07:22:56;100701.81;;;9.69;100.00
28310;BME280;15571;50.974;13.936;2024-01-25T07:26:00;100694.97;;;9.96;100.00
28310;BME280;15571;50.974;13.936;2024-01-25T07:29:04;100732.28;;;9.65;100.00
28310;BME280;15571;50.974;13.936;2024-01-25T07:32:06;100726.25;;;9.77;100.00
28310;BME280;15571;50.974;13.936;2024-01-25T07:35:08;100741.13;;;9.85;100.00
28310;BME280;15571;50.974;13.936;2024-01-25T07:38:11;100736.72;;;9.80;100.00
28310;BME280;15571;50.974;13.936;2024-01-25T07:41:13;100759.41;;;9.85;100.00
28310;BME280;15571;50.974;13.936;2024-01-25T07:44:22;100775.75;;;9.51;100.00
28310;BME280;15571;50.974;13.936;2024-01-25T07:47:24;100759.41;;;9.78;100.00
28310;BME280;15571;50.974;13.936;2024-01-25T07:50:26;100763.69;;;9.72;100.00
28310;BME280;15571;50.974;13.936;2024-01-25T07:53:28;100755.78;;;9.62;100.00
28310;BME280;15571;50.974;13.936;2024-01-25T07:56:30;100768.16;;;9.87;100.00
28310;BME280;15571;50.974;13.936;2024-01-25T07:59:34;100774.94;;;9.63;100.00
28310;BME280;15571;50.974;13.936;2024-01-25T08:02:37;100779.22;;;9.50;100.00
28310;BME280;15571;50.974;13.936;2024-01-25T08:05:40;100773.44;;;9.96;100.00
28310;BME280;15571;50.974;13.936;2024-01-25T08:08:44;100781.03;;;9.62;100.00
28310;BME280;15571;50.974;13.936;2024-01-25T08:11:49;100767.16;;;9.64;100.00
28310;BME280;15571;50.974;13.936;2024-01-25T08:14:53;100763.84;;;9.96;100.00
28310;BME280;15571;50.974;13.936;2024-01-25T08:17:55;100768.16;;;9.90;100.00
28310;BME280;15571;50.974;13.936;2024-01-25T08:20:58;100767.25;;;9.86;100.00
28310;BME280;15571;50.974;13.936;2024-01-25T08:24:01;100767.28;;;9.91;100.00
28310;BME280;15571;50.974;13.936;2024-01-25T08:27:03;100777.59;;;9.68;100.00
28310;BME280;15571;50.974;13.936;2024-01-25T08:30:07;100762.91;;;9.90;100.00
28310;BME280;15571;50.974;13.936;2024-01-25T08:33:10;100769.97;;;9.97;100.00
28310;BME280;15571;50.974;13.936;2024-01-25T08:36:12;100773.25;;;9.71;100.00
28310;BME280;15571;50.974;13.936;2024-01-25T08:39:14;100782.09;;;9.86;100.00
28310;BME280;15571;50.974;13.936;2024-01-25T08:42:16;100788.84;;;9.57;100.00
28310;BME280;15571;50.974;13.936;2024-01-25T08:45:19;100796.03;;;9.85;100.00
28310;BME280;15571;50.974;13.936;2024-01-25T08:48:22;100790.69;;;9.69;100.00
28310;BME280;15571;50.974;13.936;2024-01-25T08:51:23;100802.09;;;9.77;100.00
28310;BME280;15571;50.974;13.936;2024-01-25T08:54:25;100796.22;;;10.16;100.00
28310;BME280;15571;50.974;13.936;2024-01-25T08:57:27;100802.19;;;9.91;100.00
28310;BME280;15571;50.974;13.936;2024-01-25T09:00:30;100808.25;;;9.92;100.00
28310;BME280;15571;50.974;13.936;2024-01-25T09:03:33;100815.28;;;9.97;100.00
28310;BME280;15571;50.974;13.936;2024-01-25T09:06:36;100816.16;;;9.96;100.00
28310;BME280;15571;50.974;13.936;2024-01-25T09:09:38;100808.34;;;10.04;100.00
28310;BME280;15571;50.974;13.936;2024-01-25T09:12:39;100794.31;;;9.93;100.00
28310;BME280;15571;50.974;13.936;2024-01-25T09:15:43;100820.66;;;10.18;100.00
28310;BME280;15571;50.974;13.936;2024-01-25T09:18:47;100823.03;;;9.85;100.00
28310;BME280;15571;50.974;13.936;2024-01-25T09:21:49;100822.22;;;9.88;100.00
28310;BME280;15571;50.974;13.936;2024-01-25T09:24:51;100825.84;;;10.15;100.00
28310;BME280;15571;50.974;13.936;2024-01-25T09:27:53;100820.66;;;10.18;100.00
28310;BME280;15571;50.974;13.936;2024-01-25T09:30:56;100830.13;;;9.97;100.00
28310;BME280;15571;50.974;13.936;2024-01-25T09:33:58;100834.53;;;10.07;100.00
28310;BME280;15571;50.974;13.936;2024-01-25T09:37:00;100846.84;;;10.24;100.00
28310;BME280;15571;50.974;13.936;2024-01-25T09:40:06;100844.22;;;10.25;100.00
28310;BME280;15571;50.974;13.936;2024-01-25T09:43:08;100856.44;;;10.26;100.00
28310;BME280;15571;50.974;13.936;2024-01-25T09:46:13;100865.94;;;10.10;100.00
28310;BME280;15571;50.974;13.936;2024-01-25T09:49:16;100870.97;;;9.79;100.00
28310;BME280;15571;50.974;13.936;2024-01-25T09:52:18;100868.56;;;10.12;100.00
28310;BME280;15571;50.974;13.936;2024-01-25T09:55:25;100893.84;;;10.11;100.00
28310;BME280;15571;50.974;13.936;2024-01-25T09:58:28;100882.50;;;10.09;100.00
28310;BME280;15571;50.974;13.936;2024-01-25T10:01:37;100883.53;;;10.35;100.00
28310;BME280;15571;50.974;13.936;2024-01-25T10:04:39;100885.34;;;10.37;100.00
28310;BME280;15571;50.974;13.936;2024-01-25T10:07:42;100897.41;;;10.23;100.00
28310;BME280;15571;50.974;13.936;2024-01-25T10:10:44;100897.44;;;10.26;100.00
28310;BME280;15571;50.974;13.936;2024-01-25T10:13:49;100899.09;;;10.15;100.00
28310;BME280;15571;50.974;13.936;2024-01-25T10:16:52;100892.19;;;10.23;100.00
28310;BME280;15571;50.974;13.936;2024-01-25T10:19:54;100892.09;;;10.10;100.00
28310;BME280;15571;50.974;13.936;2024-01-25T10:22:57;100902.63;;;10.20;100.00
28310;BME280;15571;50.974;13.936;2024-01-25T10:25:59;100901.69;;;10.08;100.00
28310;BME280;15571;50.974;13.936;2024-01-25T10:29:01;100910.59;;;10.37;100.00
28310;BME280;15571;50.974;13.936;2024-01-25T10:32:05;100892.34;;;10.38;100.00
28310;BME280;15571;50.974;13.936;2024-01-25T10:35:09;100893.84;;;10.08;100.00
28310;BME280;15571;50.974;13.936;2024-01-25T10:38:11;100908.03;;;10.38;100.00
28310;BME280;15571;50.974;13.936;2024-01-25T10:41:14;100907.75;;;10.04;100.00
28310;BME280;15571;50.974;13.936;2024-01-25T10:44:16;100887.91;;;10.33;100.00
28310;BME280;15571;50.974;13.936;2024-01-25T10:47:21;100888.72;;;10.28;100.00
28310;BME280;15571;50.974;13.936;2024-01-25T10:50:26;100892.09;;;10.07;100.00
28310;BME280;15571;50.974;13.936;2024-01-25T10:53:28;100869.44;;;10.12;100.00
28310;BME280;15571;50.974;13.936;2024-01-25T10:56:33;100874.81;;;10.33;100.00
28310;BME280;15571;50.974;13.936;2024-01-25T10:59:36;100883.50;;;10.27;100.00
28310;BME280;15571;50.974;13.936;2024-01-25T11:02:40;100883.63;;;10.42;100.00
28310;BME280;15571;50.974;13.936;2024-01-25T11:05:42;100887.19;;;10.60;100.00
28310;BME280;15571;50.974;13.936;2024-01-25T11:08:47;100895.03;;;10.55;100.00
28310;BME280;15571;50.974;13.936;2024-01-25T11:11:49;100931.53;;;10.37;100.00
28310;BME280;15571;50.974;13.936;2024-01-25T11:14:53;100903.53;;;10.26;100.00
28310;BME280;15571;50.974;13.936;2024-01-25T11:17:57;100889.72;;;10.38;100.00
28310;BME280;15571;50.974;13.936;2024-01-25T11:21:00;100892.13;;;10.12;100.00
28310;BME280;15571;50.974;13.936;2024-01-25T11:24:02;100913.22;;;10.35;100.00
28310;BME280;15571;50.974;13.936;2024-01-25T11:27:05;100890.50;;;10.30;100.00
28310;BME280;15571;50.974;13.936;2024-01-25T11:30:07;100897.59;;;10.43;100.00
28310;BME280;15571;50.974;13.936;2024-01-25T11:33:11;100884.59;;;10.62;100.00
28310;BME280;15571;50.974;13.936;2024-01-25T11:36:14;100883.50;;;10.30;100.00
28310;BME280;15571;50.974;13.936;2024-01-25T11:39:17;100884.47;;;10.41;100.00
28310;BME280;15571;50.974;13.936;2024-01-25T11:42:19;100882.66;;;10.36;100.00
28310;BME280;15571;50.974;13.936;2024-01-25T11:45:21;100880.22;;;10.62;100.00
28310;BME280;15571;50.974;13.936;2024-01-25T11:48:28;100880.19;;;10.53;100.00
28310;BME280;15571;50.974;13.936;2024-01-25T11:51:30;100878.47;;;10.58;100.00
28310;BME280;15571;50.974;13.936;2024-01-25T11:54:32;100872.25;;;10.40;100.00
28310;BME280;15571;50.974;13.936;2024-01-25T11:57:35;100866.28;;;10.65;100.00
28310;BME280;15571;50.974;13.936;2024-01-25T12:00:38;100871.53;;;10.69;100.00
28310;BME280;15571;50.974;13.936;2024-01-25T12:03:41;100871.47;;;10.60;100.00
28310;BME280;15571;50.974;13.936;2024-01-25T12:06:43;100864.44;;;10.50;100.00
28310;BME280;15571;50.974;13.936;2024-01-25T12:09:56;100881.69;;;10.20;100.00
28310;BME280;15571;50.974;13.936;2024-01-25T12:12:58;100878.25;;;10.24;100.00
28310;BME280;15571;50.974;13.936;2024-01-25T12:16:00;100889.53;;;10.20;100.00
28310;BME280;15571;50.974;13.936;2024-01-25T12:19:04;100883.50;;;10.30;100.00
28310;BME280;15571;50.974;13.936;2024-01-25T12:22:09;100889.66;;;10.35;100.00
28310;BME280;15571;50.974;13.936;2024-01-25T12:25:11;100881.81;;;10.35;100.00
28310;BME280;15571;50.974;13.936;2024-01-25T12:28:14;100888.06;;;10.62;100.00
28310;BME280;15571;50.974;13.936;2024-01-25T12:31:16;100879.19;;;10.37;100.00
28310;BME280;15571;50.974;13.936;2024-01-25T12:34:19;100884.63;;;10.66;100.00
28310;BME280;15571;50.974;13.936;2024-01-25T12:37:24;100877.66;;;10.71;100.00
28310;BME280;15571;50.974;13.936;2024-01-25T12:40:26;100878.56;;;10.80;100.00
28310;BME280;15571;50.974;13.936;2024-01-25T12:43:28;100871.47;;;10.60;100.00
28310;BME280;15571;50.974;13.936;2024-01-25T12:46:30;100869.75;;;10.64;100.00
28310;BME280;15571;50.974;13.936;2024-01-25T12:49:36;100874.16;;;10.66;100.00
28310;BME280;15571;50.974;13.936;2024-01-25T12:52:38;100874.94;;;10.51;100.00
28310;BME280;15571;50.974;13.936;2024-01-25T12:55:40;100885.41;;;10.47;100.00
28310;BME280;15571;50.974;13.936;2024-01-25T12:58:44;100883.72;;;10.61;100.00
28310;BME280;15571;50.974;13.936;2024-01-25T13:01:46;100877.63;;;10.67;100.00
28310;BME280;15571;50.974;13.936;2024-01-25T13:04:50;100873.25;;;10.64;100.00
28310;BME280;15571;50.974;13.936;2024-01-25T13:07:52;100890.66;;;10.53;100.00
28310;BME280;15571;50.974;13.936;2024-01-25T13:10:54;100879.09;;;10.24;100.00
28310;BME280;15571;50.974;13.936;2024-01-25T13:13:56;100879.25;;;10.41;100.00
28310;BME280;15571;50.974;13.936;2024-01-25T13:16:58;100879.34;;;10.65;100.00
28310;BME280;15571;50.974;13.936;2024-01-25T13:20:01;100887.22;;;10.63;100.00
28310;BME280;15571;50.974;13.936;2024-01-25T13:23:06;100881.94;;;10.54;100.00
28310;BME280;15571;50.974;13.936;2024-01-25T13:26:08;100879.38;;;10.68;100.00
28310;BME280;15571;50.974;13.936;2024-01-25T13:29:10;100883.69;;;10.55;100.00
28310;BME280;15571;50.974;13.936;2024-01-25T13:32:15;100864.47;;;10.53;100.00
28310;BME280;15571;50.974;13.936;2024-01-25T13:35:18;100874.91;;;10.43;100.00
28310;BME280;15571;50.974;13.936;2024-01-25T13:38:20;100888.06;;;10.59;100.00
28310;BME280;15571;50.974;13.936;2024-01-25T13:41:22;100880.16;;;10.50;100.00
28310;BME280;15571;50.974;13.936;2024-01-25T13:44:24;100883.63;;;10.49;100.00
28310;BME280;15571;50.974;13.936;2024-01-25T13:47:26;100892.16;;;10.20;100.00
28310;BME280;15571;50.974;13.936;2024-01-25T13:50:32;100895.84;;;10.45;100.00
28310;BME280;15571;50.974;13.936;2024-01-25T13:53:39;100886.16;;;10.32;100.00
28310;BME280;15571;50.974;13.936;2024-01-25T13:56:44;100901.06;;;10.42;100.00
28310;BME280;15571;50.974;13.936;2024-01-25T13:59:46;100902.81;;;10.38;100.00
28310;BME280;15571;50.974;13.936;2024-01-25T14:02:48;100908.84;;;10.34;100.00
28310;BME280;15571;50.974;13.936;2024-01-25T14:05:53;100915.78;;;10.31;100.00
28310;BME280;15571;50.974;13.936;2024-01-25T14:08:58;100908.03;;;10.38;100.00
28310;BME280;15571;50.974;13.936;2024-01-25T14:12:00;100909.69;;;10.35;100.00
28310;BME280;15571;50.974;13.936;2024-01-25T14:15:03;100907.16;;;10.38;100.00
28310;BME280;15571;50.974;13.936;2024-01-25T14:18:07;100902.91;;;10.57;100.00
28310;BME280;15571;50.974;13.936;2024-01-25T14:21:11;100910.72;;;10.52;100.00
28310;BME280;15571;50.974;13.936;2024-01-25T14:24:13;100908.09;;;10.48;100.00
28310;BME280;15571;50.974;13.936;2024-01-25T14:27:15;100899.38;;;10.50;100.00
28310;BME280;15571;50.974;13.936;2024-01-25T14:30:17;100906.31;;;10.43;100.00
28310;BME280;15571;50.974;13.936;2024-01-25T14:33:19;100919.31;;;10.36;100.00
28310;BME280;15571;50.974;13.936;2024-01-25T14:36:22;100920.19;;;10.36;100.00
28310;BME280;15571;50.974;13.936;2024-01-25T14:39:24;100924.59;;;10.39;100.00
28310;BME280;15571;50.974;13.936;2024-01-25T14:42:26;100932.44;;;10.39;100.00
28310;BME280;15571;50.974;13.936;2024-01-25T14:45:28;100921.88;;;10.31;100.00
28310;BME280;15571;50.974;13.936;2024-01-25T14:48:31;100923.75;;;10.45;100.00
28310;BME280;15571;50.974;13.936;2024-01-25T14:51:34;100920.06;;;10.21;100.00
28310;BME280;15571;50.974;13.936;2024-01-25T14:54:36;100928.06;;;10.38;100.00
28310;BME280;15571;50.974;13.936;2024-01-25T14:57:38;100930.78;;;10.52;100.00
28310;BME280;15571;50.974;13.936;2024-01-25T15:00:40;100939.44;;;10.38;100.00
28310;BME280;15571;50.974;13.936;2024-01-25T15:03:44;100942.94;;;10.43;100.00
28310;BME280;15571;50.974;13.936;2024-01-25T15:06:48;100941.06;;;10.30;100.00
28310;BME280;15571;50.974;13.936;2024-01-25T15:09:50;100939.25;;;10.17;100.00
28310;BME280;15571;50.974;13.936;2024-01-25T15:12:51;100947.88;;;10.09;100.00
28310;BME280;15571;50.974;13.936;2024-01-25T15:15:54;100949.56;;;9.98;100.00
28310;BME280;15571;50.974;13.936;2024-01-25T15:19:02;100956.44;;;9.87;100.00
28310;BME280;15571;50.974;13.936;2024-01-25T15:22:05;100961.00;;;10.11;100.00
28310;BME280;15571;50.974;13.936;2024-01-25T15:25:08;100955.84;;;10.22;100.00
28310;BME280;15571;50.974;13.936;2024-01-25T15:28:13;100963.59;;;10.09;100.00
28310;BME280;15571;50.974;13.936;2024-01-25T15:31:18;100971.38;;;10.03;100.00
28310;BME280;15571;50.974;13.936;2024-01-25T15:34:19;100966.94;;;9.93;100.00